Queen City Park, Vermont
Current Conditions -  °F | °C
As of 7:54 PM on Thursday 27 Nov 2014 (Local Time) from KBTV Reporting Station
Overcast Overcast  
Wind Chill: 22°   Ceiling: 3400
Heat Index: 27°   Visibility: 10mi
Dew Point: 18°   Wind: 5mph
Humidity: 69%   Direction: 70°ENE
Pressure: 30.04"   Gusts: NA
Location:  44.446°N, 73.1725°W
Report Text: KBTV 280054Z 07004KT 10SM OVC034 M03/M08 A3004 RMK AO2 SLP178 T10281078
Loading
Personal Weather Stations






























Interactive Weather Map New forecast layout! Learn more

10-Day Weather Forecast

Advertisements
Track Severe Weather on mobile